AirNav   Pilot Hours Calculator
 
 511 users online  

6IL3 Reynolds Aerial Service Heliport
Mansfield, Illinois, USA

GOING TO MANSFIELD?


FAA INFORMATION EFFECTIVE 08 SEPTEMBER 2022

Location

FAA Identifier: 6IL3
Lat/Long: 40-11-12.4800N 088-30-14.3400W
40-11.208000N 088-30.239000W
40.1868000,-88.5039833
(estimated)
Elevation: 711 ft. / 217 m
From city: 3 miles S of MANSFIELD, IL
Time zone: UTC -5 (UTC -6 during Standard Time)
Zip code: 61854

Heliport Operations

Heliport use: Private use. Permission required prior to landing
Activation date: 12/2013
Control tower: no
ARTCC: CHICAGO CENTER
FSS: SAINT LOUIS FLIGHT SERVICE STATION
Attendance: IRREG
Wind indicator: yes
Segmented circle: no

Heliport Communications

WX ASOS at CMI (14 nm SE): PHONE 217-355-4072
WX AWOS-3 at TIP (18 nm E): 119.025 (217-892-4999)

Nearby radio navigation aids

VOR radial/distance  VOR name  Freq  Var
CMIr308/13.9CHAMPAIGN VORTAC110.0003E
BMIr129/26.3BLOOMINGTON VOR/DME108.2003E
RBSr211/28.3ROBERTS VOR/DME116.8002E
AXCr028/31.5ADDERS VORTAC117.2003E
PNTr162/39.5PONTIAC VOR/DME109.6003E

 
NDB name  Hdg/Dist  Freq  Var  ID
ABRAHAM088/38.332900EAAA .- .- .-

Heliport Services

Runway Information

Helipad H1

Dimensions: 25 x 25 ft. / 8 x 8 m
Surface: concrete, in good condition
Latitude: 40-11.208000N
Longitude: 088-30.239000W
Elevation: 711.0 ft.
Traffic pattern: leftleft

Heliport Ownership and Management from official FAA records

Ownership: Privately-owned
Owner: KIMBERLY S. REYNOLDS
2708 N 1300 E ROAD
MANSFIELD, IL 61854
Phone (217) 418-2820
Manager: KELSY REYNOLDS
2708 N 1300 E ROAD
MANSFIELD, IL 61854
Phone (217) 841-3021

Heliport Operational Statistics

Aircraft based on the field: 1
Helicopters: 1
    

Additional Remarks

FOR CD CTC CHAMPAIGN APCH AT 217-355-4069, WHEN APCH CLSD CTC CHICAGO ARTCC AT 630-906-8921

Instrument Procedures

There are no published instrument procedures at 6IL3.

Some nearby airports with instrument procedures:

KCMI - University of Illinois/Willard Airport (14 nm SE)
C16 - Frasca Field Airport (14 nm E)
KTIP - Rantoul National Aviation Center Airport-Frank Elliott Field (18 nm E)
1C1 - Paxton Airport (23 nm NE)
KBMI - Central Illinois Regional Airport/Bloomington-Normal (26 nm NW)
 
Loc | Ops | Rwys | IFR | FBO | Links
Com | Nav | Svcs | Stats | Notes
Aerial photo
No photo
 
Airport distance calculator
Flying to Reynolds Aerial Service Heliport? Find the distance to fly.

From to 6IL3

Sunrise and sunset
Times for 03-Oct-2022
 Local
(UTC-5)
 Zulu
(UTC)
Morning civil twilight06:2611:26
Sunrise06:5311:53
Sunset18:3323:33
Evening civil twilight19:0024:00

Current date and time
Zulu (UTC)  03-Oct-2022 10:32:01
Local (UTC-5)  03-Oct-2022 05:32:01
 
METAR
KCMI 
14nm SE 
030953Z AUTO 05007KT 10SM CLR 09/06 A3033 RMK AO2 SLP268 T00940056
KTIP 
18nm NE 
031015Z AUTO 05004KT 10SM CLR 07/06 A3034 RMK AO2 T00680058
KBMI 
25nm NW 
031012Z 09004KT 3/4SM R20/6000VP6000FT BR BKN001 06/06 A3034 RMK AO2
KDEC 
27nm SW 
030954Z AUTO 06003KT 10SM CLR 07/07 A3032 RMK AO2 SLP268 T00670067
TAF
KCMI 
14nm SE 
030520Z 0306/0406 04008KT P6SM FEW250
NOTAMs
Click for the latest NOTAMs
NOTAMs are issued by the DoD/FAA and will open in a separate window not controlled by AirNav.

 

 
 

Would you like to see your business listed on this page?

 If your business provides an interesting product or service to pilots, flight crews, aircraft, or users of the Reynolds Aerial Service Heliport, you should consider listing it here.  To start the listing process, click on the button below
 
Add a business
 

Other Pages about Reynolds Aerial Service Heliport

Update a link
 
Copyright © AirNav, LLC. All rights reserved. Privacy Policy  Contact